Time;durP1;ratioP1;P1;durP2;ratioP2;P2;SDS_P1;SDS_P2;PMS_P1;PMS_P2;Temp;Humidity;BMP_temperature;BMP_pressure;BME280_temperature;BME280_humidity;BME280_pressure;Samples;Min_cycle;Max_cycle;Signal;HPM_P1;HPM_P2
2023/02/20 00:02:26;;;;;;;7.82;3.97;;;;;;;2.57;90.93;101624.75;5029681;28;20190;-70
2023/02/20 00:05:01;;;;;;;6.97;3.55;;;;;;;2.59;91.17;101631.66;5034340;28;20193;-69
2023/02/20 00:07:32;;;;;;;5.80;2.72;;;;;;;2.63;91.23;101634.91;5021581;28;20760;-70
2023/02/20 00:10:11;;;;;;;4.85;4.18;;;;;;;2.69;91.05;101623.69;5034457;28;20207;-68
2023/02/20 00:12:42;;;;;;;9.13;3.97;;;;;;;2.68;90.75;101627.34;5013524;28;20628;-70
2023/02/20 00:15:18;;;;;;;3.88;3.45;;;;;;;2.69;90.76;101626.38;5055108;28;20197;-69
2023/02/20 00:17:52;;;;;;;6.80;3.95;;;;;;;2.65;91.29;101619.59;5033683;28;20739;-70
2023/02/20 00:20:29;;;;;;;4.97;3.83;;;;;;;2.62;91.67;101614.50;5015838;28;20216;-68
2023/02/20 00:23:00;;;;;;;6.53;4.57;;;;;;;2.61;91.41;101619.00;5009864;28;20192;-69
2023/02/20 00:25:30;;;;;;;7.65;5.05;;;;;;;2.58;91.61;101618.44;5023931;28;20201;-69
2023/02/20 00:28:08;;;;;;;9.82;4.93;;;;;;;2.60;91.60;101601.28;5019387;28;21024;-71
2023/02/20 00:30:40;;;;;;;10.57;4.60;;;;;;;2.59;91.92;101602.25;5041042;28;20239;-71
2023/02/20 00:33:13;;;;;;;6.15;4.00;;;;;;;2.63;91.86;101601.00;5021139;28;20222;-71
2023/02/20 00:35:44;;;;;;;10.10;4.22;;;;;;;2.61;91.74;101602.16;5032368;28;20279;-67
2023/02/20 00:38:18;;;;;;;10.02;4.10;;;;;;;2.56;92.34;101599.03;5060109;28;20236;-71
2023/02/20 00:40:49;;;;;;;8.13;5.22;;;;;;;2.57;92.34;101595.34;5030547;28;20198;-71
2023/02/20 00:43:20;;;;;;;9.35;3.95;;;;;;;2.57;92.16;101595.34;5021441;28;20224;-69
2023/02/20 00:45:51;;;;;;;7.60;5.13;;;;;;;2.54;92.47;101592.94;5015403;28;20211;-70
2023/02/20 00:48:26;;;;;;;7.95;4.35;;;;;;;2.59;92.75;101583.56;5015781;28;20221;-67
2023/02/20 00:51:17;;;;;;;11.73;5.30;;;;;;;2.56;92.86;101586.50;5035778;28;20288;-69
2023/02/20 00:53:53;;;;;;;13.27;4.80;;;;;;;2.58;93.13;101578.34;5012595;28;20292;-70
2023/02/20 00:56:23;;;;;;;10.70;6.20;;;;;;;2.56;93.04;101580.31;5003675;28;20598;-70
2023/02/20 00:58:55;;;;;;;7.72;5.30;;;;;;;2.59;92.88;101572.03;5016895;28;20309;-70
2023/02/20 01:01:28;;;;;;;8.48;5.55;;;;;;;2.68;92.52;101565.03;5029095;28;20552;-69
2023/02/20 01:04:00;;;;;;;9.85;4.25;;;;;;;2.67;92.72;101566.84;5022735;28;20624;-69
2023/02/20 01:06:31;;;;;;;7.97;5.70;;;;;;;2.74;92.52;101567.16;5017193;28;20704;-67
2023/02/20 01:09:02;;;;;;;9.82;5.85;;;;;;;2.91;92.08;101570.03;5023729;28;20735;-70
2023/02/20 01:11:35;;;;;;;5.38;4.40;;;;;;;3.01;91.16;101565.53;5015014;28;20314;-70
2023/02/20 01:14:06;;;;;;;9.80;4.63;;;;;;;3.13;90.75;101563.63;5002969;28;20676;-69
2023/02/20 01:16:45;;;;;;;10.38;5.32;;;;;;;3.14;90.33;101551.94;5027678;28;20231;-72
2023/02/20 01:19:21;;;;;;;10.98;5.10;;;;;;;3.27;89.74;101551.66;5044293;28;20201;-71
2023/02/20 01:22:07;;;;;;;9.68;5.00;;;;;;;3.24;90.32;101551.97;5018482;28;20208;-70
2023/02/20 01:24:42;;;;;;;9.98;5.55;;;;;;;3.30;89.52;101546.03;5019290;28;20204;-70
2023/02/20 01:27:16;;;;;;;7.15;3.92;;;;;;;3.43;89.01;101551.97;5055261;28;20238;-69
2023/02/20 01:29:49;;;;;;;17.38;6.13;;;;;;;3.48;88.58;101544.38;5031664;28;20285;-69
2023/02/20 01:32:21;;;;;;;8.93;4.63;;;;;;;3.48;88.20;101536.34;5039150;28;20181;-70
2023/02/20 01:34:55;;;;;;;9.35;5.28;;;;;;;3.59;88.29;101524.63;5019431;28;20197;-70
2023/02/20 01:37:27;;;;;;;10.48;5.18;;;;;;;3.46;88.38;101514.22;5024979;28;20248;-70
2023/02/20 01:40:00;;;;;;;7.25;4.93;;;;;;;3.47;88.00;101513.25;5011871;28;20699;-69
2023/02/20 01:42:34;;;;;;;7.80;5.20;;;;;;;3.43;88.01;101520.72;5042768;28;20227;-68
2023/02/20 01:45:20;;;;;;;7.15;4.72;;;;;;;3.47;88.30;101521.28;5018574;28;20236;-69
2023/02/20 01:47:57;;;;;;;6.18;4.72;;;;;;;3.57;88.05;101499.84;5018383;28;20252;-68
2023/02/20 01:50:32;;;;;;;7.00;5.00;;;;;;;3.62;87.89;101495.78;5010382;28;20626;-70
2023/02/20 01:53:10;;;;;;;9.48;4.75;;;;;;;3.64;87.73;101498.28;5035000;28;20615;-71
2023/02/20 01:55:44;;;;;;;8.65;4.68;;;;;;;3.64;87.98;101484.91;5028407;28;20253;-69
2023/02/20 01:58:21;;;;;;;9.65;6.78;;;;;;;3.65;88.05;101471.38;5006108;28;20606;-69
2023/02/20 02:00:53;;;;;;;8.75;5.78;;;;;;;3.75;87.77;101455.31;5043087;28;20590;-70
2023/02/20 02:03:31;;;;;;;16.50;6.57;;;;;;;3.78;87.30;101452.31;5035519;28;20552;-70
2023/02/20 02:06:06;;;;;;;8.13;4.80;;;;;;;3.81;87.30;101444.03;5012455;28;20205;-71
2023/02/20 02:08:42;;;;;;;7.68;4.85;;;;;;;3.84;87.16;101444.56;5025256;28;20291;-70
2023/02/20 02:11:17;;;;;;;5.07;4.20;;;;;;;3.84;87.38;101449.94;5024089;28;20194;-69
2023/02/20 02:13:49;;;;;;;9.00;5.28;;;;;;;3.87;87.00;101448.81;5011218;28;20193;-70
2023/02/20 02:16:29;;;;;;;6.78;6.07;;;;;;;3.90;87.11;101449.34;5021465;28;20229;-70
2023/02/20 02:19:06;;;;;;;7.43;4.72;;;;;;;3.96;87.31;101441.72;5019276;28;20231;-70
2023/02/20 02:22:24;;;;;;;8.73;5.68;;;;;;;3.94;86.82;101439.19;5012596;28;20712;-69
2023/02/20 02:25:37;;;;;;;8.32;4.75;;;;;;;3.99;87.07;101452.97;5012677;28;20685;-70
2023/02/20 02:28:37;;;;;;;7.00;5.43;;;;;;;4.04;86.85;101444.50;4993428;28;20322;-68
2023/02/20 02:31:56;;;;;;;8.48;5.82;;;;;;;4.06;86.68;101451.41;5043904;28;20181;-70
2023/02/20 02:35:02;;;;;;;7.22;4.88;;;;;;;4.16;86.76;101438.00;5057300;28;20188;-69
2023/02/20 02:37:45;;;;;;;9.05;6.10;;;;;;;4.12;86.98;101432.06;5027348;28;20225;-69
2023/02/20 02:40:26;;;;;;;6.05;4.53;;;;;;;4.15;86.59;101421.06;5020924;28;20240;-69
2023/02/20 02:43:09;;;;;;;9.48;5.15;;;;;;;4.16;86.51;101417.41;5060629;28;20221;-69
2023/02/20 02:45:48;;;;;;;11.52;4.70;;;;;;;4.21;87.04;101400.88;5044285;28;20208;-70
2023/02/20 02:48:27;;;;;;;8.00;5.32;;;;;;;4.25;86.60;101404.94;5025518;28;20193;-68
2023/02/20 02:51:03;;;;;;;7.30;4.80;;;;;;;4.12;87.63;101404.44;5018530;28;20193;-68
2023/02/20 02:53:38;;;;;;;12.18;5.90;;;;;;;4.23;87.03;101397.06;5020599;28;20194;-69
2023/02/20 02:56:22;;;;;;;6.55;4.72;;;;;;;4.22;87.26;101397.19;5008735;28;20204;-70
2023/02/20 02:59:01;;;;;;;9.93;5.70;;;;;;;4.21;87.19;101399.03;5020702;28;20737;-70
2023/02/20 03:01:33;;;;;;;6.00;4.95;;;;;;;4.30;86.99;101394.63;5012928;28;20216;-70
2023/02/20 03:04:08;;;;;;;12.50;6.50;;;;;;;4.27;87.72;101393.06;5013073;28;20288;-70
2023/02/20 03:06:45;;;;;;;9.23;4.95;;;;;;;4.38;87.09;101392.88;5023360;28;20217;-71
2023/02/20 03:09:24;;;;;;;9.23;5.95;;;;;;;4.39;87.57;101391.06;5016912;28;20555;-68
2023/02/20 03:11:57;;;;;;;13.98;6.15;;;;;;;4.45;87.29;101377.06;5019640;28;20201;-70
2023/02/20 03:17:30;;;;;;;10.50;6.82;;;;;;;4.53;87.26;101361.06;5001265;28;20312;-69
2023/02/20 03:20:04;;;;;;;9.20;5.88;;;;;;;4.53;87.64;101368.25;5017090;28;20212;-71
2023/02/20 03:22:40;;;;;;;9.18;6.15;;;;;;;4.51;88.12;101360.34;5022285;28;20204;-69
2023/02/20 03:25:30;;;;;;;9.30;5.50;;;;;;;4.56;88.00;101362.56;5007830;28;20682;-70
2023/02/20 03:28:03;;;;;;;8.35;6.50;;;;;;;4.64;87.79;101357.31;5014244;28;20284;-69
2023/02/20 03:30:42;;;;;;;7.95;5.93;;;;;;;4.64;87.94;101342.06;5012626;28;20259;-70
2023/02/20 03:45:05;;;;;;;7.22;5.60;;;;;;;4.85;87.89;101327.50;5045163;28;20194;-67
2023/02/20 03:47:40;;;;;;;8.43;6.13;;;;;;;4.85;87.48;101319.44;5029120;28;20221;-70
2023/02/20 03:50:13;;;;;;;14.65;6.97;;;;;;;4.83;87.35;101324.97;5014229;28;20608;-70
2023/02/20 03:52:45;;;;;;;9.15;5.32;;;;;;;4.82;87.69;101324.13;5024358;28;20196;-69
2023/02/20 03:55:18;;;;;;;9.98;6.38;;;;;;;4.84;87.83;101340.09;5011299;28;20198;-70
2023/02/20 03:57:54;;;;;;;13.00;7.05;;;;;;;4.82;88.15;101342.06;4998988;28;20316;-70
2023/02/20 04:00:32;;;;;;;10.70;6.35;;;;;;;4.92;88.23;101344.66;5027830;28;20220;-69
2023/02/20 04:03:11;;;;;;;12.02;7.30;;;;;;;4.91;87.91;101340.28;5004377;28;20289;-70
2023/02/20 04:05:49;;;;;;;12.10;6.80;;;;;;;4.93;88.35;101338.31;5026850;28;20204;-71
2023/02/20 04:08:34;;;;;;;10.90;7.35;;;;;;;4.96;88.27;101336.16;5015418;28;20217;-69
2023/02/20 04:11:10;;;;;;;18.52;7.50;;;;;;;5.01;87.99;101323.13;5018194;28;20563;-69
2023/02/20 04:13:45;;;;;;;13.30;6.43;;;;;;;4.94;88.41;101310.50;5013129;28;20193;-69
2023/02/20 04:16:15;;;;;;;9.50;7.07;;;;;;;4.99;88.60;101319.72;5005959;28;20232;-70
2023/02/20 04:18:48;;;;;;;9.23;5.85;;;;;;;5.05;88.57;101318.28;5025237;28;20197;-71
2023/02/20 04:21:27;;;;;;;13.18;6.90;;;;;;;5.07;88.69;101311.78;5033076;28;20224;-70
2023/02/20 04:24:08;;;;;;;7.15;5.97;;;;;;;5.11;88.26;101312.28;5014003;28;20205;-71
2023/02/20 04:26:45;;;;;;;11.77;7.10;;;;;;;5.17;88.83;101306.31;5022640;28;20275;-70
2023/02/20 04:29:18;;;;;;;14.30;6.63;;;;;;;5.15;89.03;101303.78;5014204;28;20202;-70
2023/02/20 04:32:02;;;;;;;11.02;6.90;;;;;;;5.14;89.16;101290.50;5015643;28;20258;-69
2023/02/20 04:34:36;;;;;;;9.23;7.22;;;;;;;5.16;89.17;101280.47;5019082;28;20197;-71
2023/02/20 04:37:13;;;;;;;9.23;6.28;;;;;;;5.12;89.51;101287.16;5016378;28;20223;-71
2023/02/20 04:39:49;;;;;;;12.98;7.70;;;;;;;5.19;89.53;101290.88;5019277;28;20292;-70
2023/02/20 04:42:20;;;;;;;9.38;6.55;;;;;;;5.24;89.33;101280.50;5026868;28;20200;-70
2023/02/20 04:44:53;;;;;;;14.15;5.97;;;;;;;5.24;89.72;101269.78;5026573;28;20192;-69
2023/02/20 04:47:27;;;;;;;16.60;8.38;;;;;;;5.27;89.87;101264.13;5016463;28;20626;-69
2023/02/20 04:50:00;;;;;;;11.77;7.20;;;;;;;5.30;89.58;101261.09;5018361;28;20297;-70
2023/02/20 04:52:32;;;;;;;9.38;6.72;;;;;;;5.37;89.52;101269.38;5022737;28;20284;-70
2023/02/20 04:55:05;;;;;;;7.15;6.07;;;;;;;5.33;89.74;101258.09;5031673;28;20216;-70
2023/02/20 04:57:39;;;;;;;10.50;6.70;;;;;;;5.33;89.50;101260.78;5035131;28;20659;-71
2023/02/20 05:00:14;;;;;;;10.50;7.40;;;;;;;5.39;89.59;101243.19;5023327;28;20224;-70
2023/02/20 05:02:48;;;;;;;7.53;5.90;;;;;;;5.35;89.75;101233.78;5020868;28;20197;-70
2023/02/20 05:05:24;;;;;;;10.02;7.70;;;;;;;5.41;89.66;101234.00;5039540;28;20197;-72
2023/02/20 05:08:09;;;;;;;7.93;5.40;;;;;;;5.39;89.87;101230.63;5036117;28;20219;-70
2023/02/20 05:10:40;;;;;;;10.02;7.15;;;;;;;5.44;89.95;101230.97;5047943;28;20188;-70
2023/02/20 05:13:11;;;;;;;12.52;7.47;;;;;;;5.43;90.31;101221.22;5024470;28;20205;-70
2023/02/20 05:15:44;;;;;;;11.10;8.07;;;;;;;5.49;90.16;101214.38;5030005;28;20291;-69
2023/02/20 05:18:26;;;;;;;20.40;7.40;;;;;;;5.47;90.48;101211.84;5021552;28;20244;-70
2023/02/20 05:23:46;;;;;;;9.93;7.20;;;;;;;5.48;90.84;101208.16;5030234;28;20211;-70
2023/02/20 05:26:22;;;;;;;10.07;6.38;;;;;;;5.44;91.35;101201.44;5021741;28;20221;-71
2023/02/20 05:29:00;;;;;;;16.77;7.80;;;;;;;5.57;91.77;101212.56;5028423;28;20276;-70
2023/02/20 05:31:33;;;;;;;10.00;7.30;;;;;;;5.56;91.49;101208.22;5019939;28;20660;-70
2023/02/20 05:34:04;;;;;;;10.50;7.95;;;;;;;5.58;91.70;101200.84;5005448;28;20581;-69
2023/02/20 05:36:35;;;;;;;15.52;8.23;;;;;;;5.56;91.81;101204.69;5032359;28;20221;-70
2023/02/20 05:39:06;;;;;;;10.68;7.40;;;;;;;5.54;92.74;101204.84;5029805;28;20193;-71
2023/02/20 05:41:39;;;;;;;9.85;7.78;;;;;;;5.59;92.64;101207.88;5018922;28;20216;-72
2023/02/20 05:44:11;;;;;;;9.43;7.13;;;;;;;5.69;92.90;101197.84;5029065;28;20261;-69
2023/02/20 05:46:44;;;;;;;10.27;7.45;;;;;;;5.62;93.04;101188.75;5045749;28;20206;-69
2023/02/20 05:49:20;;;;;;;11.70;6.60;;;;;;;5.59;93.35;101194.47;5035220;28;20287;-69
2023/02/20 05:51:52;;;;;;;10.35;7.72;;;;;;;5.61;93.75;101183.56;5026702;28;20202;-70
2023/02/20 05:54:24;;;;;;;12.95;8.68;;;;;;;5.66;93.95;101173.19;5005382;28;20205;-72
2023/02/20 05:56:55;;;;;;;9.43;7.85;;;;;;;5.63;94.61;101179.72;5014874;28;20252;-69
2023/02/20 05:59:30;;;;;;;11.80;7.22;;;;;;;5.66;95.07;101173.19;5034103;28;20675;-67
2023/02/20 06:02:04;;;;;;;9.50;8.32;;;;;;;5.59;94.51;101164.94;5025279;28;20221;-69
2023/02/20 06:04:35;;;;;;;12.85;8.80;;;;;;;5.62;94.84;101144.97;5026489;28;20224;-68
2023/02/20 06:07:10;;;;;;;9.90;7.05;;;;;;;5.63;95.33;101135.91;5035748;28;20217;-70
2023/02/20 06:09:44;;;;;;;13.30;8.90;;;;;;;5.66;94.87;101141.78;5023178;28;20282;-71
2023/02/20 06:12:17;;;;;;;14.13;8.73;;;;;;;5.65;94.53;101148.19;5002161;28;20625;-69
2023/02/20 06:14:49;;;;;;;11.98;8.13;;;;;;;5.71;93.68;101127.06;5011044;28;20205;-67
2023/02/20 06:17:28;;;;;;;11.32;7.72;;;;;;;5.77;93.49;101131.75;5044215;28;20229;-70
2023/02/20 06:19:59;;;;;;;7.32;6.35;;;;;;;5.76;93.52;101122.03;5028071;28;20198;-70
2023/02/20 06:22:30;;;;;;;9.93;8.35;;;;;;;5.80;93.63;101126.91;5017465;28;20201;-71
2023/02/20 06:25:00;;;;;;;10.48;7.82;;;;;;;5.82;93.37;101118.66;5016628;28;20213;-69
2023/02/20 06:27:31;;;;;;;13.15;8.35;;;;;;;5.88;93.21;101139.53;5012438;28;20228;-71
2023/02/20 06:30:02;;;;;;;10.50;7.32;;;;;;;5.87;92.95;101127.94;5019578;28;20201;-71
2023/02/20 06:32:45;;;;;;;9.88;7.15;;;;;;;5.93;92.96;101121.91;5017512;28;20201;-70
2023/02/20 06:35:16;;;;;;;12.65;10.20;;;;;;;5.93;92.23;101118.38;5009733;28;20607;-71
2023/02/20 06:38:06;;;;;;;9.75;7.43;;;;;;;5.92;92.82;101111.31;5007717;28;20245;-70
2023/02/20 06:40:37;;;;;;;14.43;8.50;;;;;;;5.83;93.02;101090.78;5018580;28;20235;-68
2023/02/20 06:43:09;;;;;;;10.85;7.45;;;;;;;5.95;92.80;101119.06;5016778;28;20218;-68
2023/02/20 06:45:39;;;;;;;12.27;8.20;;;;;;;5.95;93.90;101119.06;5019276;28;20205;-71
2023/02/20 06:48:18;;;;;;;11.75;7.95;;;;;;;6.02;93.92;101103.94;5013922;28;20722;-70
2023/02/20 06:50:54;;;;;;;14.60;9.45;;;;;;;6.00;93.80;101079.91;5019973;28;20296;-71
2023/02/20 06:53:25;;;;;;;12.73;9.20;;;;;;;5.95;93.19;101089.50;5013136;28;20705;-71
2023/02/20 06:55:55;;;;;;;13.68;8.75;;;;;;;5.97;93.12;101090.16;5017207;28;20292;-71
2023/02/20 06:58:25;;;;;;;14.07;10.40;;;;;;;6.09;93.05;101110.34;5016876;28;20259;-70
2023/02/20 07:00:58;;;;;;;15.23;10.45;;;;;;;6.06;91.74;101110.66;5010926;28;20206;-71
2023/02/20 07:03:31;;;;;;;14.25;10.77;;;;;;;6.10;91.74;101104.75;5042074;28;20300;-71
2023/02/20 07:06:06;;;;;;;13.45;9.82;;;;;;;6.26;91.21;101095.03;5041479;28;20240;-70
2023/02/20 07:08:37;;;;;;;12.85;9.02;;;;;;;6.22;91.32;101089.16;5016345;28;20232;-69
2023/02/20 07:11:09;;;;;;;14.57;9.25;;;;;;;6.19;90.36;101089.50;5035528;28;20190;-69
2023/02/20 07:13:40;;;;;;;18.17;11.35;;;;;;;6.22;90.64;101056.06;5019455;28;20199;-70
2023/02/20 07:16:13;;;;;;;18.58;12.95;;;;;;;6.20;89.67;101068.81;5021980;28;20227;-68
2023/02/20 07:18:49;;;;;;;13.57;10.07;;;;;;;6.30;89.90;101080.22;5011414;28;20690;-68
2023/02/20 07:21:21;;;;;;;12.70;9.25;;;;;;;6.26;88.76;101074.38;5015402;28;20369;-69
2023/02/20 07:23:52;;;;;;;17.02;12.23;;;;;;;6.28;88.89;101072.38;4997835;28;20213;-70
2023/02/20 07:26:25;;;;;;;13.73;10.27;;;;;;;6.38;88.37;101051.50;5027373;28;20225;-69
2023/02/20 07:28:59;;;;;;;17.38;10.90;;;;;;;6.52;87.85;101074.16;5025267;28;20194;-69
2023/02/20 07:31:33;;;;;;;17.00;10.00;;;;;;;6.53;86.70;101076.66;5043478;28;20203;-70
2023/02/20 07:34:07;;;;;;;16.35;10.57;;;;;;;6.57;86.61;101061.03;5027429;28;20245;-68
2023/02/20 07:36:42;;;;;;;13.20;10.82;;;;;;;6.61;86.25;101078.50;5016653;28;20213;-69
2023/02/20 07:39:13;;;;;;;15.57;10.85;;;;;;;6.67;85.63;101066.22;5003561;28;20202;-69
2023/02/20 07:41:51;;;;;;;15.75;11.10;;;;;;;6.68;84.91;101062.53;5060476;28;20203;-69
2023/02/20 07:44:50;;;;;;;15.32;11.20;;;;;;;6.78;84.17;101050.53;5012254;28;20189;-68
2023/02/20 07:47:26;;;;;;;15.10;10.93;;;;;;;6.73;83.83;101054.78;5020922;28;20224;-69
2023/02/20 07:50:00;;;;;;;17.55;11.27;;;;;;;6.82;83.70;101037.59;5019921;28;20189;-70
2023/02/20 07:52:31;;;;;;;16.00;10.80;;;;;;;6.84;83.95;101030.19;5016746;28;20243;-69
2023/02/20 07:55:02;;;;;;;20.58;11.07;;;;;;;6.80;82.89;101020.78;5000169;28;20216;-69
2023/02/20 07:57:39;;;;;;;13.35;10.05;;;;;;;6.90;82.12;101034.88;5033913;28;20229;-69
2023/02/20 08:00:14;;;;;;;12.45;8.52;;;;;;;6.90;82.19;101040.25;4998870;28;20280;-70
2023/02/20 08:02:45;;;;;;;13.65;10.10;;;;;;;6.91;81.63;101042.78;5023537;28;20240;-70
2023/02/20 08:05:18;;;;;;;14.48;10.27;;;;;;;6.99;80.90;101039.19;5019350;28;20197;-71
2023/02/20 08:07:49;;;;;;;13.23;8.85;;;;;;;6.94;80.94;101017.34;5033444;28;20292;-69
2023/02/20 08:10:24;;;;;;;11.80;9.43;;;;;;;7.06;80.80;101001.66;4999861;28;20189;-70
2023/02/20 08:12:56;;;;;;;16.27;10.32;;;;;;;6.99;80.73;100988.06;5016727;28;20270;-70
2023/02/20 08:15:26;;;;;;;11.27;9.27;;;;;;;7.10;80.02;100994.91;5018111;28;20272;-69
2023/02/20 08:17:56;;;;;;;11.15;7.60;;;;;;;7.18;79.64;100984.94;5019339;28;20223;-70
2023/02/20 08:20:30;;;;;;;13.80;10.30;;;;;;;7.25;79.32;100977.84;5024470;28;20194;-68
2023/02/20 08:23:00;;;;;;;14.45;9.45;;;;;;;7.26;79.25;100987.56;5037601;28;20213;-68
2023/02/20 08:25:31;;;;;;;15.75;9.10;;;;;;;7.23;79.03;100971.78;5033033;28;20196;-70
2023/02/20 08:28:01;;;;;;;12.70;7.30;;;;;;;7.30;79.21;100983.53;5025459;28;20692;-68
2023/02/20 08:30:31;;;;;;;13.02;9.25;;;;;;;7.35;78.84;100967.69;5024359;28;20652;-69
2023/02/20 08:33:05;;;;;;;9.85;7.60;;;;;;;7.25;79.08;100959.00;5041196;28;20193;-70
2023/02/20 08:35:37;;;;;;;9.77;7.72;;;;;;;7.35;78.38;100953.38;5015434;28;20251;-69
2023/02/20 08:38:21;;;;;;;10.50;7.78;;;;;;;7.36;78.20;100958.56;5024180;28;20216;-69
2023/02/20 08:40:54;;;;;;;9.55;7.57;;;;;;;7.41;78.12;100948.09;5012187;28;20248;-68
2023/02/20 08:44:17;;;;;;;9.98;7.63;;;;;;;7.48;78.49;100933.91;5016348;28;20217;-67
2023/02/20 08:46:48;;;;;;;10.07;7.82;;;;;;;7.46;78.30;100930.53;5031543;28;20270;-69
2023/02/20 08:49:18;;;;;;;8.05;6.72;;;;;;;7.55;77.89;100924.91;5013010;28;20196;-69
2023/02/20 08:51:57;;;;;;;14.82;8.57;;;;;;;7.49;77.88;100927.50;5024142;28;20207;-69
2023/02/20 08:54:27;;;;;;;10.95;7.80;;;;;;;7.62;77.37;100907.03;5039241;28;20603;-70
2023/02/20 08:56:57;;;;;;;10.95;8.02;;;;;;;7.67;77.26;100903.78;5024761;28;20245;-70
2023/02/20 08:59:27;;;;;;;9.15;7.03;;;;;;;7.74;76.84;100896.66;5021721;28;20663;-70
2023/02/20 09:01:58;;;;;;;7.28;6.30;;;;;;;7.73;76.92;100889.59;5009205;28;20289;-68
2023/02/20 09:04:28;;;;;;;7.85;6.80;;;;;;;7.81;76.70;100882.25;5020512;28;20216;-70
2023/02/20 09:06:59;;;;;;;7.90;6.70;;;;;;;7.88;76.29;100871.56;5032158;28;20232;-67
2023/02/20 09:09:30;;;;;;;8.35;6.15;;;;;;;7.97;75.88;100858.84;5033381;28;20189;-71
2023/02/20 09:12:00;;;;;;;7.68;6.40;;;;;;;8.03;75.33;100864.34;5020255;28;20218;-67
2023/02/20 09:14:30;;;;;;;10.43;7.13;;;;;;;7.96;75.85;100860.69;5031759;28;20197;-70
2023/02/20 09:17:00;;;;;;;8.23;6.80;;;;;;;8.13;75.48;100846.00;5006379;28;20229;-69
2023/02/20 09:19:30;;;;;;;9.88;7.78;;;;;;;8.12;75.03;100840.81;5011618;28;20212;-69
2023/02/20 09:22:02;;;;;;;6.80;5.97;;;;;;;8.13;75.20;100845.19;5032899;28;20197;-68
2023/02/20 09:24:33;;;;;;;10.00;7.25;;;;;;;8.21;74.66;100829.72;5038443;28;20288;-69
2023/02/20 09:27:07;;;;;;;8.45;6.43;;;;;;;8.31;74.25;100831.31;5039273;28;20280;-68
2023/02/20 09:29:39;;;;;;;9.30;7.45;;;;;;;8.41;73.84;100819.22;5030083;28;20190;-71
2023/02/20 09:32:10;;;;;;;7.18;5.82;;;;;;;8.55;73.83;100814.81;5037579;28;20209;-70
2023/02/20 09:34:44;;;;;;;7.25;6.00;;;;;;;8.49;72.94;100807.47;5039076;28;20202;-69
2023/02/20 09:37:17;;;;;;;11.18;7.05;;;;;;;8.47;73.37;100814.94;5033732;28;20649;-69
2023/02/20 09:39:47;;;;;;;9.73;5.68;;;;;;;8.55;73.30;100810.25;5013369;28;20205;-69
2023/02/20 09:42:40;;;;;;;8.98;5.63;;;;;;;8.68;72.49;100798.75;5039019;28;20189;-68
2023/02/20 09:45:19;;;;;;;10.30;5.38;;;;;;;8.83;72.18;100799.53;5017685;28;20221;-69
2023/02/20 09:48:12;;;;;;;11.88;6.25;;;;;;;8.73;71.55;100804.41;5022287;28;20216;-68
2023/02/20 09:50:50;;;;;;;9.55;5.57;;;;;;;8.76;72.17;100822.09;5020005;28;20193;-69
2023/02/20 09:53:30;;;;;;;12.55;6.40;;;;;;;8.82;71.84;100807.81;5030550;28;20200;-69
2023/02/20 09:56:05;;;;;;;9.80;6.20;;;;;;;8.90;71.55;100799.59;5021988;28;20308;-70
2023/02/20 09:58:45;;;;;;;11.45;6.13;;;;;;;9.04;71.10;100812.19;5022717;28;20208;-70
2023/02/20 10:01:18;;;;;;;8.07;5.70;;;;;;;9.05;71.13;100814.66;5019090;28;20185;-70
2023/02/20 10:03:56;;;;;;;8.13;5.70;;;;;;;8.95;71.16;100806.09;5013788;28;20209;-69
2023/02/20 10:06:30;;;;;;;9.15;6.68;;;;;;;9.20;70.77;100795.69;5002371;28;20620;-68
2023/02/20 10:09:03;;;;;;;7.15;5.72;;;;;;;9.24;70.14;100790.75;5021386;28;20284;-69
2023/02/20 10:11:54;;;;;;;13.50;7.78;;;;;;;9.27;70.05;100785.78;5041238;28;20284;-69
2023/02/20 10:14:39;;;;;;;8.88;6.63;;;;;;;9.44;69.55;100780.94;5019604;28;20200;-69
2023/02/20 10:17:20;;;;;;;9.95;5.13;;;;;;;9.26;69.71;100777.88;5011945;28;20228;-69
2023/02/20 10:19:57;;;;;;;7.32;4.90;;;;;;;9.31;70.16;100776.25;5036987;28;20197;-69
2023/02/20 10:22:33;;;;;;;9.43;5.70;;;;;;;9.12;70.63;100767.00;5019740;28;20574;-71
2023/02/20 10:25:11;;;;;;;9.43;5.72;;;;;;;9.38;69.99;100762.81;5031319;28;20212;-67
2023/02/20 10:27:53;;;;;;;7.10;4.55;;;;;;;9.50;69.60;100761.22;5013273;28;20222;-70
2023/02/20 10:30:28;;;;;;;6.75;4.60;;;;;;;9.60;69.50;100764.41;5039439;28;20201;-70
2023/02/20 10:33:04;;;;;;;7.33;6.20;;;;;;;9.54;69.48;100754.38;5019371;28;20196;-71
2023/02/20 10:35:41;;;;;;;7.55;5.25;;;;;;;9.68;69.41;100764.25;5019309;28;20446;-70
2023/02/20 10:38:14;;;;;;;6.97;4.97;;;;;;;9.76;68.63;100752.44;5023793;28;20312;-70
2023/02/20 10:40:48;;;;;;;6.07;4.23;;;;;;;9.89;69.23;100753.34;5031525;28;20189;-70
2023/02/20 10:43:22;;;;;;;14.13;5.10;;;;;;;10.07;68.83;100760.06;5015997;28;20643;-70
2023/02/20 10:45:58;;;;;;;8.70;5.17;;;;;;;9.91;68.51;100751.28;5016387;28;20196;-70
2023/02/20 10:48:33;;;;;;;8.70;5.50;;;;;;;10.06;68.30;100747.59;5013630;28;20956;-70
2023/02/20 10:51:08;;;;;;;7.47;5.03;;;;;;;10.01;68.43;100723.88;5015741;28;20439;-69
2023/02/20 10:53:45;;;;;;;7.10;4.97;;;;;;;9.82;69.23;100736.25;5015528;28;20486;-70
2023/02/20 10:56:21;;;;;;;6.80;4.80;;;;;;;9.92;69.05;100731.28;5022329;28;20467;-71
2023/02/20 10:58:57;;;;;;;7.63;5.60;;;;;;;9.98;69.34;100716.97;5014584;28;20798;-69
2023/02/20 11:01:28;;;;;;;9.80;5.27;;;;;;;10.18;68.58;100727.88;5031962;28;20424;-70
2023/02/20 11:04:02;;;;;;;6.83;4.90;;;;;;;10.42;67.88;100704.84;5015595;28;20860;-69
2023/02/20 11:06:37;;;;;;;5.90;4.70;;;;;;;10.33;68.30;100708.78;5032804;28;20413;-69
2023/02/20 11:09:07;;;;;;;5.97;4.03;;;;;;;10.22;69.09;100715.63;5016288;28;20468;-68
2023/02/20 11:11:42;;;;;;;5.93;4.37;;;;;;;10.24;69.02;100718.97;5036656;28;20401;-70
2023/02/20 11:14:15;;;;;;;6.40;5.33;;;;;;;10.15;69.66;100717.47;5039641;28;20429;-69
2023/02/20 11:16:51;;;;;;;7.50;5.40;;;;;;;10.22;70.05;100706.66;5014983;28;20522;-68
2023/02/20 11:19:26;;;;;;;9.13;5.80;;;;;;;10.13;70.43;100722.22;5016597;28;20440;-70
2023/02/20 11:21:58;;;;;;;6.13;5.03;;;;;;;10.08;70.82;100727.41;5014631;28;20793;-68
2023/02/20 11:24:31;;;;;;;9.05;4.85;;;;;;;10.01;71.55;100716.59;5027730;28;20216;-69
2023/02/20 11:27:11;;;;;;;7.33;5.83;;;;;;;10.10;71.46;100716.41;5025849;28;20221;-68
2023/02/20 11:29:54;;;;;;;7.00;5.80;;;;;;;9.97;72.27;100730.72;5008118;28;20459;-70
2023/02/20 11:32:35;;;;;;;8.98;6.50;;;;;;;9.92;73.30;100715.06;5015087;28;20228;-70
2023/02/20 11:35:25;;;;;;;8.90;5.30;;;;;;;9.96;73.36;100721.78;5034637;28;20185;-70
2023/02/20 11:38:18;;;;;;;9.10;5.63;;;;;;;10.04;73.77;100712.63;5006241;28;20441;-67
2023/02/20 11:41:01;;;;;;;7.80;6.03;;;;;;;10.10;73.42;100721.81;5002091;28;20190;-70
2023/02/20 11:43:35;;;;;;;8.33;5.67;;;;;;;10.06;73.71;100712.44;5004801;28;20255;-70
2023/02/20 11:46:15;;;;;;;10.23;6.27;;;;;;;10.00;74.45;100722.19;5042953;28;20723;-69
2023/02/20 11:49:07;;;;;;;7.50;6.63;;;;;;;9.94;74.39;100723.00;5020178;28;20982;-70
2023/02/20 11:51:38;;;;;;;8.90;7.20;;;;;;;9.90;74.94;100700.09;5038384;28;20269;-70
2023/02/20 11:54:10;;;;;;;12.63;8.23;;;;;;;10.04;74.62;100696.41;5021005;28;20440;-68
2023/02/20 11:56:59;;;;;;;8.32;6.32;;;;;;;10.02;74.65;100699.31;5037807;28;20563;-69
2023/02/20 11:59:38;;;;;;;7.43;6.55;;;;;;;9.91;75.38;100696.38;5014796;28;20292;-68
2023/02/20 12:02:24;;;;;;;9.05;5.93;;;;;;;9.97;75.39;100696.38;5013885;28;20620;-68
2023/02/20 12:05:12;;;;;;;11.10;6.80;;;;;;;10.00;75.52;100705.97;5034931;28;20702;-69
2023/02/20 12:07:44;;;;;;;8.73;6.28;;;;;;;9.97;75.93;100699.09;5026611;28;20506;-69
2023/02/20 12:10:33;;;;;;;8.27;5.50;;;;;;;10.00;76.13;100701.41;5041433;28;20194;-68
2023/02/20 12:13:04;;;;;;;8.95;6.72;;;;;;;9.94;76.68;100704.06;5035760;28;20435;-68
2023/02/20 12:15:36;;;;;;;9.50;7.47;;;;;;;10.10;76.11;100690.19;5034652;28;20189;-69
2023/02/20 12:18:37;;;;;;;10.70;7.77;;;;;;;10.16;75.79;100702.94;5014171;28;20544;-68
2023/02/20 12:21:19;;;;;;;12.23;11.07;;;;;;;10.23;75.72;100703.78;5033951;28;20456;-70
2023/02/20 12:24:09;;;;;;;11.63;7.43;;;;;;;10.15;76.23;100706.66;5015794;28;20425;-69
2023/02/20 12:26:52;;;;;;;14.43;7.80;;;;;;;10.17;76.19;100701.03;5010460;28;20433;-68
2023/02/20 12:29:36;;;;;;;10.83;8.83;;;;;;;10.19;76.17;100696.28;5035209;28;20812;-70